Time;durP1;ratioP1;P1;durP2;ratioP2;P2;SDS_P1;SDS_P2;PMS_P1;PMS_P2;Temp;Humidity;BMP_temperature;BMP_pressure;BME280_temperature;BME280_humidity;BME280_pressure;Samples;Min_cycle;Max_cycle;Signal;HPM_P1;HPM_P2
2023/05/04 00:00:04;;;;;;;3.53;3.00;;;;;;;;;;5059984;28;20238;-63
2023/05/04 00:05:45;;;;;;;3.30;3.00;;;;;;;;;;5059659;28;20233;-63
2023/05/04 00:08:13;;;;;;;3.33;3.03;;;;;;;;;;5059530;28;20218;-63
2023/05/04 00:10:41;;;;;;;3.93;2.60;;;;;;;;;;5059636;28;20211;-62
2023/05/04 00:13:09;;;;;;;3.87;3.10;;;;;;;;;;5059378;28;20211;-63
2023/05/04 00:15:37;;;;;;;3.63;3.00;;;;;;;;;;5059700;28;20227;-63
2023/05/04 00:18:05;;;;;;;3.77;2.80;;;;;;;;;;5059201;28;20257;-63
2023/05/04 00:20:33;;;;;;;4.53;2.47;;;;;;;;;;5059247;28;20238;-62
2023/05/04 00:23:02;;;;;;;2.97;2.77;;;;;;;;;;5059254;28;20206;-63
2023/05/04 00:25:30;;;;;;;3.27;2.80;;;;;;;;;;5059145;28;20302;-60
2023/05/04 00:27:58;;;;;;;4.53;2.73;;;;;;;;;;5059326;28;20223;-63
2023/05/04 00:30:26;;;;;;;3.80;2.77;;;;;;;;;;5059286;28;20217;-63
2023/05/04 00:32:54;;;;;;;2.60;2.40;;;;;;;;;;5059299;28;20242;-63
2023/05/04 00:35:24;;;;;;;6.63;2.60;;;;;;;;;;5058957;28;20306;-63
2023/05/04 00:37:52;;;;;;;3.20;2.40;;;;;;;;;;5059230;28;20203;-64
2023/05/04 00:40:21;;;;;;;2.20;2.00;;;;;;;;;;5058969;28;20246;-63
2023/05/04 00:42:49;;;;;;;2.60;2.40;;;;;;;;;;5059295;28;20212;-64
2023/05/04 00:45:17;;;;;;;2.70;2.47;;;;;;;;;;5058783;28;20702;-63
2023/05/04 00:47:45;;;;;;;2.53;2.33;;;;;;;;;;5058929;28;20233;-62
2023/05/04 00:50:14;;;;;;;2.20;2.10;;;;;;;;;;5058794;28;20231;-63
2023/05/04 00:52:43;;;;;;;2.37;2.07;;;;;;;;;;5058793;28;20570;-63
2023/05/04 00:55:11;;;;;;;2.70;2.50;;;;;;;;;;5058590;28;20226;-63
2023/05/04 00:57:41;;;;;;;2.93;1.83;;;;;;;;;;5058938;28;20199;-63
2023/05/04 01:00:12;;;;;;;1.87;1.77;;;;;;;;;;5058741;28;20207;-63
2023/05/04 01:02:40;;;;;;;2.50;2.30;;;;;;;;;;5058827;28;20207;-63
2023/05/04 01:05:08;;;;;;;2.20;1.80;;;;;;;;;;5058370;28;20697;-63
2023/05/04 01:07:39;;;;;;;2.23;2.03;;;;;;;;;;5058682;28;20269;-63
2023/05/04 01:10:10;;;;;;;3.03;2.00;;;;;;;;;;5058488;28;20219;-63
2023/05/04 01:12:40;;;;;;;2.30;2.10;;;;;;;;;;5058564;28;20207;-63
2023/05/04 01:15:11;;;;;;;2.00;1.90;;;;;;;;;;5058736;28;20231;-63
2023/05/04 01:17:39;;;;;;;4.20;2.10;;;;;;;;;;5058437;28;20241;-63
2023/05/04 01:20:08;;;;;;;3.33;2.13;;;;;;;;;;5057558;28;20217;-63
2023/05/04 01:22:38;;;;;;;2.70;1.80;;;;;;;;;;5058405;28;20202;-63
2023/05/04 01:25:06;;;;;;;4.27;2.20;;;;;;;;;;5058050;28;20258;-63
2023/05/04 01:27:37;;;;;;;1.97;1.87;;;;;;;;;;5057908;28;20255;-62
2023/05/04 01:30:09;;;;;;;2.13;1.93;;;;;;;;;;5058725;28;20293;-63
2023/05/04 01:32:37;;;;;;;2.07;1.87;;;;;;;;;;5058090;28;20234;-61
2023/05/04 01:35:06;;;;;;;4.27;2.57;;;;;;;;;;5058240;28;20237;-63
2023/05/04 01:37:34;;;;;;;2.07;1.80;;;;;;;;;;5057863;28;20567;-63
2023/05/04 01:40:04;;;;;;;2.00;1.80;;;;;;;;;;5057693;28;20284;-63
2023/05/04 01:42:32;;;;;;;2.20;1.47;;;;;;;;;;5057974;28;20264;-63
2023/05/04 01:45:02;;;;;;;2.00;1.80;;;;;;;;;;5057821;28;20664;-63
2023/05/04 01:47:30;;;;;;;2.10;1.33;;;;;;;;;;5057624;28;20583;-63
2023/05/04 01:49:58;;;;;;;2.23;1.47;;;;;;;;;;5057985;28;20238;-63
2023/05/04 01:52:26;;;;;;;2.20;1.73;;;;;;;;;;5057969;28;20245;-63
2023/05/04 01:54:54;;;;;;;3.90;1.80;;;;;;;;;;5057655;28;20218;-63
2023/05/04 01:57:23;;;;;;;1.40;1.33;;;;;;;;;;5057713;28;20674;-63
2023/05/04 01:59:51;;;;;;;1.77;1.67;;;;;;;;;;5057570;28;20578;-63
2023/05/04 02:02:19;;;;;;;2.30;1.60;;;;;;;;;;5057540;28;20230;-63
2023/05/04 02:04:47;;;;;;;1.97;1.80;;;;;;;;;;5057527;28;20246;-63
2023/05/04 02:07:15;;;;;;;2.03;1.77;;;;;;;;;;5058064;28;20222;-62
2023/05/04 02:09:43;;;;;;;3.40;1.30;;;;;;;;;;5057390;28;20310;-63
2023/05/04 02:12:11;;;;;;;1.93;1.80;;;;;;;;;;5057555;28;20637;-63
2023/05/04 02:14:41;;;;;;;1.50;1.40;;;;;;;;;;5057824;28;20241;-63
2023/05/04 02:17:09;;;;;;;1.93;1.60;;;;;;;;;;5057372;28;20588;-63
2023/05/04 02:19:37;;;;;;;1.87;1.50;;;;;;;;;;5057360;28;20245;-63
2023/05/04 02:22:05;;;;;;;1.70;1.37;;;;;;;;;;5057671;28;20238;-63
2023/05/04 02:24:33;;;;;;;3.80;1.43;;;;;;;;;;5057600;28;20204;-62
2023/05/04 02:27:01;;;;;;;1.60;1.50;;;;;;;;;;5057067;28;20277;-63
2023/05/04 02:29:29;;;;;;;1.80;1.60;;;;;;;;;;5057321;28;20324;-63
2023/05/04 02:31:58;;;;;;;1.47;1.40;;;;;;;;;;5059950;28;20662;-63
2023/05/04 02:34:26;;;;;;;1.50;1.40;;;;;;;;;;5061443;28;20693;-63
2023/05/04 02:36:54;;;;;;;1.77;1.40;;;;;;;;;;5061353;28;20280;-63
2023/05/04 02:39:22;;;;;;;1.53;1.33;;;;;;;;;;5061531;28;20203;-63
2023/05/04 02:41:50;;;;;;;1.50;1.40;;;;;;;;;;5061270;28;20214;-63
2023/05/04 02:44:18;;;;;;;1.83;1.70;;;;;;;;;;5061426;28;20222;-62
2023/05/04 02:46:47;;;;;;;1.60;1.50;;;;;;;;;;5060924;28;20261;-62
2023/05/04 02:49:16;;;;;;;1.37;1.27;;;;;;;;;;5061039;28;20277;-62
2023/05/04 02:51:44;;;;;;;1.33;1.30;;;;;;;;;;5061273;28;20261;-62
2023/05/04 02:54:12;;;;;;;1.20;1.00;;;;;;;;;;5061011;28;20548;-62
2023/05/04 02:56:40;;;;;;;1.60;1.37;;;;;;;;;;5060920;28;20231;-62
2023/05/04 02:59:08;;;;;;;3.03;1.30;;;;;;;;;;5060989;28;20203;-62
2023/05/04 03:01:35;;;;;;;1.03;1.03;;;;;;;;;;5060642;28;20683;-63
2023/05/04 03:04:04;;;;;;;1.57;1.27;;;;;;;;;;5061269;28;20291;-64
2023/05/04 03:06:33;;;;;;;1.30;1.20;;;;;;;;;;5060603;28;20234;-62
2023/05/04 03:09:01;;;;;;;1.37;1.20;;;;;;;;;;5060729;28;20222;-63
2023/05/04 03:11:29;;;;;;;1.50;1.40;;;;;;;;;;5060391;28;20294;-63
2023/05/04 03:13:57;;;;;;;1.63;1.30;;;;;;;;;;5060581;28;20570;-63
2023/05/04 03:16:25;;;;;;;1.13;1.03;;;;;;;;;;5060678;28;20227;-63
2023/05/04 03:18:53;;;;;;;1.93;1.10;;;;;;;;;;5060874;28;20203;-63
2023/05/04 03:21:40;;;;;;;1.93;1.10;;;;;;;;;;5060723;28;20752;-63
2023/05/04 03:24:08;;;;;;;1.50;1.27;;;;;;;;;;5060588;28;20206;-63
2023/05/04 03:26:36;;;;;;;3.80;1.10;;;;;;;;;;5060123;28;20241;-63
2023/05/04 03:29:04;;;;;;;1.00;0.90;;;;;;;;;;5060452;28;20253;-63
2023/05/04 03:31:32;;;;;;;1.77;1.13;;;;;;;;;;5060496;28;20264;-63
2023/05/04 03:34:00;;;;;;;2.57;1.10;;;;;;;;;;5060200;28;20215;-63
2023/05/04 03:36:28;;;;;;;2.13;1.70;;;;;;;;;;5060454;28;20231;-63
2023/05/04 03:38:58;;;;;;;1.30;1.20;;;;;;;;;;5060113;28;20203;-63
2023/05/04 03:41:25;;;;;;;1.30;0.90;;;;;;;;;;5060302;28;20214;-63
2023/05/04 03:43:53;;;;;;;1.73;0.90;;;;;;;;;;5059550;28;20214;-63
2023/05/04 03:46:21;;;;;;;3.00;2.40;;;;;;;;;;5059897;28;20223;-63
2023/05/04 03:48:49;;;;;;;2.10;1.13;;;;;;;;;;5060178;28;20231;-63
2023/05/04 03:51:17;;;;;;;0.97;0.97;;;;;;;;;;5060008;28;20237;-62
2023/05/04 03:53:45;;;;;;;1.70;1.20;;;;;;;;;;5060214;28;20210;-62
2023/05/04 03:56:15;;;;;;;2.93;1.27;;;;;;;;;;5059848;28;20231;-63
2023/05/04 03:58:43;;;;;;;1.30;1.10;;;;;;;;;;5059663;28;20674;-63
2023/05/04 04:01:10;;;;;;;2.03;1.63;;;;;;;;;;5059729;28;20634;-62
2023/05/04 04:03:39;;;;;;;2.97;1.30;;;;;;;;;;5059831;28;20203;-62
2023/05/04 04:06:08;;;;;;;1.20;1.10;;;;;;;;;;5059809;28;20231;-63
2023/05/04 04:08:36;;;;;;;1.20;1.10;;;;;;;;;;5059859;28;20397;-62
2023/05/04 04:11:04;;;;;;;1.27;1.10;;;;;;;;;;5059350;28;20696;-63
2023/05/04 04:13:34;;;;;;;1.63;0.93;;;;;;;;;;5059545;28;20215;-62
2023/05/04 04:16:02;;;;;;;1.00;1.00;;;;;;;;;;5059609;28;20226;-63
2023/05/04 04:18:30;;;;;;;2.03;1.17;;;;;;;;;;5059652;28;20212;-63
2023/05/04 04:20:57;;;;;;;1.37;1.27;;;;;;;;;;5059199;28;20243;-63
2023/05/04 04:23:25;;;;;;;4.00;1.97;;;;;;;;;;5059673;28;20211;-62
2023/05/04 04:25:53;;;;;;;2.13;1.90;;;;;;;;;;5059032;28;20246;-62
2023/05/04 04:28:21;;;;;;;1.83;1.40;;;;;;;;;;5059480;28;20264;-63
2023/05/04 04:30:51;;;;;;;0.87;0.80;;;;;;;;;;5059166;28;20217;-63
2023/05/04 04:33:19;;;;;;;1.43;0.80;;;;;;;;;;5059431;28;20245;-62
2023/05/04 04:35:48;;;;;;;1.10;0.90;;;;;;;;;;5059006;28;20237;-62
2023/05/04 04:38:16;;;;;;;1.30;1.00;;;;;;;;;;5059343;28;20242;-60
2023/05/04 04:40:44;;;;;;;2.20;1.00;;;;;;;;;;5058784;28;20712;-62
2023/05/04 04:43:13;;;;;;;1.00;1.00;;;;;;;;;;5058995;28;20614;-60
2023/05/04 04:45:41;;;;;;;1.03;0.90;;;;;;;;;;5058834;28;20573;-62
2023/05/04 04:48:11;;;;;;;1.27;0.70;;;;;;;;;;5058774;28;20214;-62
2023/05/04 04:50:39;;;;;;;1.70;1.00;;;;;;;;;;5059216;28;20230;-61
2023/05/04 04:53:07;;;;;;;0.90;0.90;;;;;;;;;;5058778;28;20217;-62
2023/05/04 04:55:35;;;;;;;2.67;1.13;;;;;;;;;;5057315;28;20769;-62
2023/05/04 04:58:03;;;;;;;1.37;0.87;;;;;;;;;;5058751;28;20215;-62
2023/05/04 05:00:31;;;;;;;1.37;1.10;;;;;;;;;;5045429;28;20199;-62
2023/05/04 05:02:59;;;;;;;2.20;1.00;;;;;;;;;;5058708;28;20203;-62
2023/05/04 05:05:29;;;;;;;1.00;1.00;;;;;;;;;;5058518;28;20237;-62
2023/05/04 05:07:58;;;;;;;0.70;0.70;;;;;;;;;;5058439;28;20294;-62
2023/05/04 05:10:26;;;;;;;0.60;0.60;;;;;;;;;;5058567;28;20222;-60
2023/05/04 05:12:54;;;;;;;0.90;0.80;;;;;;;;;;5058596;28;20210;-61
2023/05/04 05:15:22;;;;;;;0.87;0.80;;;;;;;;;;5058555;28;20223;-59
2023/05/04 05:17:50;;;;;;;0.80;0.80;;;;;;;;;;5058072;28;20550;-62
2023/05/04 05:20:18;;;;;;;0.70;0.70;;;;;;;;;;5058240;28;20207;-61
2023/05/04 05:22:47;;;;;;;0.60;0.60;;;;;;;;;;5058200;28;20211;-59
2023/05/04 05:25:15;;;;;;;0.83;0.83;;;;;;;;;;5057959;28;20708;-60
2023/05/04 05:27:43;;;;;;;1.13;1.00;;;;;;;;;;5058331;28;20238;-59
2023/05/04 05:30:12;;;;;;;0.80;0.80;;;;;;;;;;5057949;28;20666;-61
2023/05/04 05:32:40;;;;;;;0.70;0.70;;;;;;;;;;5057858;28;20210;-61
2023/05/04 05:35:09;;;;;;;1.20;1.00;;;;;;;;;;5057923;28;20646;-61
2023/05/04 05:37:37;;;;;;;3.10;1.00;;;;;;;;;;5051839;28;20235;-61
2023/05/04 05:40:08;;;;;;;1.00;1.00;;;;;;;;;;5045761;28;20734;-61
2023/05/04 05:42:36;;;;;;;0.70;0.70;;;;;;;;;;5049258;28;20565;-60
2023/05/04 05:45:04;;;;;;;1.60;0.97;;;;;;;;;;5048654;28;20265;-60
2023/05/04 05:47:32;;;;;;;1.77;1.17;;;;;;;;;;5046163;28;20983;-61
2023/05/04 05:50:00;;;;;;;1.63;0.90;;;;;;;;;;5046232;28;20218;-61
2023/05/04 05:52:28;;;;;;;0.90;0.77;;;;;;;;;;5045295;28;20249;-61
2023/05/04 05:54:56;;;;;;;3.40;1.20;;;;;;;;;;5045808;28;20204;-61
2023/05/04 05:57:29;;;;;;;1.17;1.10;;;;;;;;;;5045942;28;20205;-61
2023/05/04 05:59:57;;;;;;;1.23;0.83;;;;;;;;;;5048682;28;20202;-61
2023/05/04 06:02:25;;;;;;;2.10;1.17;;;;;;;;;;5046986;28;20605;-61
2023/05/04 06:04:54;;;;;;;8.73;1.13;;;;;;;;;;5047049;28;20578;-59
2023/05/04 06:07:22;;;;;;;4.70;1.03;;;;;;;;;;5046680;28;20202;-61
2023/05/04 06:09:50;;;;;;;1.20;1.10;;;;;;;;;;5046878;28;20227;-62
2023/05/04 06:12:18;;;;;;;3.27;1.00;;;;;;;;;;5045539;28;20208;-62
2023/05/04 06:14:48;;;;;;;2.70;1.70;;;;;;;;;;5046034;28;20210;-62
2023/05/04 06:17:17;;;;;;;1.13;1.00;;;;;;;;;;5047507;28;20286;-62
2023/05/04 06:19:46;;;;;;;3.10;1.17;;;;;;;;;;5044820;28;20282;-62
2023/05/04 06:22:17;;;;;;;0.80;0.80;;;;;;;;;;5046192;28;20795;-62
2023/05/04 06:24:45;;;;;;;2.13;0.90;;;;;;;;;;5047803;28;20286;-62
2023/05/04 06:27:13;;;;;;;2.07;1.10;;;;;;;;;;5048217;28;20199;-62
2023/05/04 06:29:41;;;;;;;5.50;1.37;;;;;;;;;;5055887;28;20227;-62
2023/05/04 06:32:11;;;;;;;3.10;0.90;;;;;;;;;;5057268;28;20306;-62
2023/05/04 06:34:39;;;;;;;1.17;0.93;;;;;;;;;;5049813;28;20261;-62
2023/05/04 06:37:07;;;;;;;1.27;0.90;;;;;;;;;;5045228;28;20230;-62
2023/05/04 06:39:35;;;;;;;1.90;1.30;;;;;;;;;;5046534;28;20209;-62
2023/05/04 06:42:03;;;;;;;1.33;1.23;;;;;;;;;;5045251;28;20207;-61
2023/05/04 06:44:34;;;;;;;1.97;1.03;;;;;;;;;;5051306;28;20666;-62
2023/05/04 06:47:02;;;;;;;1.00;1.00;;;;;;;;;;5046011;28;20225;-61
2023/05/04 06:49:32;;;;;;;1.53;1.10;;;;;;;;;;5046324;28;20225;-61
2023/05/04 06:52:00;;;;;;;1.43;1.00;;;;;;;;;;5046192;28;20230;-61
2023/05/04 06:54:28;;;;;;;2.40;1.23;;;;;;;;;;5048386;28;20754;-62
2023/05/04 06:56:56;;;;;;;3.37;1.10;;;;;;;;;;5056950;28;20230;-61
2023/05/04 06:59:24;;;;;;;2.47;1.40;;;;;;;;;;5057153;28;20543;-61
2023/05/04 07:01:52;;;;;;;1.57;1.07;;;;;;;;;;5057045;28;20246;-61
2023/05/04 07:04:22;;;;;;;1.60;1.50;;;;;;;;;;5057289;28;20214;-61
2023/05/04 07:06:51;;;;;;;3.27;1.27;;;;;;;;;;5057068;28;20223;-62
2023/05/04 07:09:19;;;;;;;2.07;1.27;;;;;;;;;;5057188;28;20245;-61
2023/05/04 07:11:48;;;;;;;1.27;1.10;;;;;;;;;;5056630;28;20230;-61
2023/05/04 07:14:16;;;;;;;1.70;1.10;;;;;;;;;;5056866;28;20219;-62
2023/05/04 07:16:44;;;;;;;0.80;0.80;;;;;;;;;;5057054;28;20276;-61
2023/05/04 07:19:12;;;;;;;1.10;1.00;;;;;;;;;;5059582;28;20239;-62
2023/05/04 07:21:40;;;;;;;1.07;0.90;;;;;;;;;;5054466;28;20298;-62
2023/05/04 07:24:09;;;;;;;0.90;0.90;;;;;;;;;;5057455;28;20199;-61
2023/05/04 07:26:37;;;;;;;1.33;1.00;;;;;;;;;;5057460;28;20219;-59
2023/05/04 07:29:05;;;;;;;11.33;2.23;;;;;;;;;;5051996;28;20199;-60
2023/05/04 07:31:33;;;;;;;0.90;0.90;;;;;;;;;;5059331;28;20316;-59
2023/05/04 07:34:02;;;;;;;2.03;1.10;;;;;;;;;;5054467;28;20204;-59
2023/05/04 07:36:30;;;;;;;1.03;0.87;;;;;;;;;;5057128;28;20301;-59
2023/05/04 07:38:58;;;;;;;1.60;1.07;;;;;;;;;;5057280;28;20569;-59
2023/05/04 07:41:27;;;;;;;2.07;1.27;;;;;;;;;;5056818;28;20252;-59
2023/05/04 07:43:55;;;;;;;1.93;0.90;;;;;;;;;;5058023;28;20641;-60
2023/05/04 07:46:23;;;;;;;2.33;1.30;;;;;;;;;;5058437;28;20219;-59
2023/05/04 07:48:51;;;;;;;0.77;0.77;;;;;;;;;;5056077;28;20222;-59
2023/05/04 07:51:19;;;;;;;4.37;1.10;;;;;;;;;;5057330;28;20249;-59
2023/05/04 07:53:47;;;;;;;1.20;1.10;;;;;;;;;;5042699;28;20215;-60
2023/05/04 07:56:15;;;;;;;2.77;1.10;;;;;;;;;;5039362;28;20710;-60
2023/05/04 07:58:46;;;;;;;0.80;0.80;;;;;;;;;;5056115;28;20260;-60
2023/05/04 08:01:14;;;;;;;2.10;2.00;;;;;;;;;;5054558;28;20290;-59
2023/05/04 08:03:43;;;;;;;3.53;1.00;;;;;;;;;;5052674;28;20289;-60
2023/05/04 08:06:11;;;;;;;1.80;1.00;;;;;;;;;;5052623;28;20223;-60
2023/05/04 08:08:38;;;;;;;2.33;1.00;;;;;;;;;;5048599;28;20209;-60
2023/05/04 08:11:06;;;;;;;0.70;0.70;;;;;;;;;;5059364;28;20227;-59
2023/05/04 08:13:49;;;;;;;4.90;0.80;;;;;;;;;;5059341;28;20202;-60
2023/05/04 08:16:17;;;;;;;0.87;0.87;;;;;;;;;;5059433;28;20229;-59
2023/05/04 08:18:45;;;;;;;2.40;1.10;;;;;;;;;;5059278;28;20215;-60
2023/05/04 08:21:13;;;;;;;4.90;1.00;;;;;;;;;;5059055;28;20238;-60
2023/05/04 08:23:41;;;;;;;1.80;0.90;;;;;;;;;;5059214;28;20266;-60
2023/05/04 08:26:09;;;;;;;3.80;1.00;;;;;;;;;;5058689;28;20718;-60
2023/05/04 08:28:39;;;;;;;2.87;1.00;;;;;;;;;;5059014;28;20207;-60
2023/05/04 08:31:08;;;;;;;2.87;0.80;;;;;;;;;;5059135;28;20597;-59
2023/05/04 08:33:37;;;;;;;3.33;0.87;;;;;;;;;;5059283;28;20206;-59
2023/05/04 08:36:05;;;;;;;1.50;0.90;;;;;;;;;;5058985;28;20795;-60
2023/05/04 08:38:33;;;;;;;1.47;0.70;;;;;;;;;;5059112;28;20241;-60
2023/05/04 08:41:02;;;;;;;5.27;1.07;;;;;;;;;;5059037;28;20217;-60
2023/05/04 08:43:30;;;;;;;0.97;0.90;;;;;;;;;;5059255;28;20217;-60
2023/05/04 08:45:58;;;;;;;3.17;0.87;;;;;;;;;;5058829;28;20709;-60
2023/05/04 08:48:28;;;;;;;2.83;0.70;;;;;;;;;;5059085;28;20295;-59
2023/05/04 08:50:57;;;;;;;12.10;8.57;;;;;;;;;;5058984;28;20314;-59
2023/05/04 08:53:26;;;;;;;10.00;3.93;;;;;;;;;;5059120;28;20214;-59
2023/05/04 08:55:55;;;;;;;2.57;2.37;;;;;;;;;;5058348;28;20777;-59
2023/05/04 08:58:24;;;;;;;6.83;4.47;;;;;;;;;;5052558;28;20199;-60
2023/05/04 09:00:53;;;;;;;3.30;1.97;;;;;;;;;;5058361;28;20218;-60
2023/05/04 09:03:21;;;;;;;7.20;3.57;;;;;;;;;;5058469;28;20303;-59
2023/05/04 09:05:51;;;;;;;5.90;4.03;;;;;;;;;;5057793;28;20219;-60
2023/05/04 09:08:20;;;;;;;7.53;4.87;;;;;;;;;;5057399;28;20574;-59
2023/05/04 09:10:48;;;;;;;8.00;2.40;;;;;;;;;;5047322;28;20683;-59
2023/05/04 09:13:16;;;;;;;2.53;1.90;;;;;;;;;;5051086;28;20201;-59
2023/05/04 09:15:53;;;;;;;2.27;1.70;;;;;;;;;;5057874;28;20282;-60
2023/05/04 09:18:21;;;;;;;4.80;2.13;;;;;;;;;;5058105;28;20238;-59
2023/05/04 09:20:51;;;;;;;3.27;2.27;;;;;;;;;;5058233;28;20294;-59
2023/05/04 09:23:21;;;;;;;3.80;1.60;;;;;;;;;;5045417;28;20211;-59
2023/05/04 09:25:49;;;;;;;3.13;1.73;;;;;;;;;;5057459;28;20684;-59
2023/05/04 09:28:18;;;;;;;4.30;1.97;;;;;;;;;;5056705;28;20204;-59
2023/05/04 09:30:47;;;;;;;3.77;1.90;;;;;;;;;;5055516;28;20239;-59
2023/05/04 09:33:15;;;;;;;2.07;1.30;;;;;;;;;;5054297;28;20259;-59
2023/05/04 09:35:44;;;;;;;2.83;2.27;;;;;;;;;;5057444;28;20597;-59
2023/05/04 09:38:24;;;;;;;3.07;2.07;;;;;;;;;;5058099;28;20207;-60
2023/05/04 09:40:52;;;;;;;2.00;1.23;;;;;;;;;;5057202;28;20207;-60
2023/05/04 09:43:20;;;;;;;1.37;1.03;;;;;;;;;;5058092;28;20239;-62
2023/05/04 09:45:49;;;;;;;0.97;0.83;;;;;;;;;;5057274;28;20259;-62
2023/05/04 09:48:17;;;;;;;3.80;1.33;;;;;;;;;;5057728;28;20210;-62
2023/05/04 09:50:49;;;;;;;2.10;1.00;;;;;;;;;;5056282;28;20201;-61
2023/05/04 09:53:20;;;;;;;1.43;0.70;;;;;;;;;;5051892;28;20227;-61
2023/05/04 09:55:50;;;;;;;0.80;0.80;;;;;;;;;;5057495;28;20229;-61
2023/05/04 09:58:18;;;;;;;2.50;0.80;;;;;;;;;;5057762;28;20215;-61
2023/05/04 10:00:46;;;;;;;1.17;0.90;;;;;;;;;;5057484;28;20221;-61
2023/05/04 10:03:14;;;;;;;1.10;1.10;;;;;;;;;;5057277;28;20201;-61
2023/05/04 10:05:42;;;;;;;3.70;1.20;;;;;;;;;;5057418;28;20293;-61
2023/05/04 10:08:12;;;;;;;2.30;1.03;;;;;;;;;;5057612;28;20233;-60
2023/05/04 10:10:42;;;;;;;0.87;0.83;;;;;;;;;;5057586;28;20236;-60
2023/05/04 10:13:10;;;;;;;3.23;1.00;;;;;;;;;;5057133;28;20697;-62
2023/05/04 10:15:40;;;;;;;1.60;0.90;;;;;;;;;;5057048;28;20227;-62
2023/05/04 10:18:13;;;;;;;1.37;1.20;;;;;;;;;;5057394;28;20213;-63
2023/05/04 10:20:50;;;;;;;2.50;0.83;;;;;;;;;;5057215;28;20267;-62
2023/05/04 10:23:26;;;;;;;1.30;0.97;;;;;;;;;;5057494;28;20236;-62
2023/05/04 10:26:21;;;;;;;3.40;0.90;;;;;;;;;;5056945;28;20225;-62
2023/05/04 10:28:58;;;;;;;1.00;0.90;;;;;;;;;;5010907;28;20210;-62
2023/05/04 10:31:36;;;;;;;3.50;0.90;;;;;;;;;;5057133;28;20741;-61
2023/05/04 10:34:04;;;;;;;0.90;0.90;;;;;;;;;;5057353;28;20214;-61
2023/05/04 10:36:36;;;;;;;1.57;0.87;;;;;;;;;;5057349;28;20266;-62
2023/05/04 10:39:04;;;;;;;1.93;1.00;;;;;;;;;;5057178;28;20266;-60
2023/05/04 10:41:32;;;;;;;1.90;1.80;;;;;;;;;;5057055;28;20206;-60
2023/05/04 10:44:05;;;;;;;1.77;1.13;;;;;;;;;;5052178;28;20214;-60
2023/05/04 10:46:33;;;;;;;2.10;1.27;;;;;;;;;;5037362;28;20279;-62
2023/05/04 10:49:01;;;;;;;1.07;1.00;;;;;;;;;;5037510;28;20290;-61
2023/05/04 10:51:29;;;;;;;4.07;1.37;;;;;;;;;;5037383;28;20215;-61
2023/05/04 10:54:18;;;;;;;2.00;1.17;;;;;;;;;;5050452;28;20283;-62
2023/05/04 10:56:46;;;;;;;1.43;1.30;;;;;;;;;;5060786;28;20674;-63
2023/05/04 10:59:16;;;;;;;1.43;1.30;;;;;;;;;;5061198;28;20290;-61
2023/05/04 11:01:44;;;;;;;6.37;0.90;;;;;;;;;;5061097;28;20213;-63
2023/05/04 11:04:21;;;;;;;1.03;1.03;;;;;;;;;;5057017;28;20247;-62
2023/05/04 11:06:58;;;;;;;0.90;0.90;;;;;;;;;;5053523;28;20626;-63
2023/05/04 11:09:26;;;;;;;1.87;1.13;;;;;;;;;;5068653;28;20202;-63
2023/05/04 11:11:55;;;;;;;0.93;0.90;;;;;;;;;;5060705;28;20246;-63
2023/05/04 11:14:26;;;;;;;2.63;0.90;;;;;;;;;;5053550;28;20199;-63
2023/05/04 11:17:05;;;;;;;4.60;1.20;;;;;;;;;;5054168;28;20253;-63
2023/05/04 11:19:53;;;;;;;3.40;1.20;;;;;;;;;;5053677;28;20568;-63
2023/05/04 11:22:21;;;;;;;2.07;0.80;;;;;;;;;;5040092;28;20252;-63
2023/05/04 11:24:49;;;;;;;1.23;0.97;;;;;;;;;;5046960;28;20284;-62
2023/05/04 11:27:24;;;;;;;1.20;1.10;;;;;;;;;;5060004;28;20199;-64
2023/05/04 11:30:00;;;;;;;1.63;1.27;;;;;;;;;;5059962;28;20258;-63
2023/05/04 11:32:34;;;;;;;0.87;0.87;;;;;;;;;;5052572;28;20227;-63
2023/05/04 11:35:02;;;;;;;1.40;1.00;;;;;;;;;;5052217;28;20235;-63
2023/05/04 11:37:31;;;;;;;1.43;1.10;;;;;;;;;;5049754;28;20197;-64
2023/05/04 11:39:59;;;;;;;2.13;1.00;;;;;;;;;;5058118;28;20647;-64
2023/05/04 11:42:27;;;;;;;3.83;1.10;;;;;;;;;;5059685;28;20595;-64
2023/05/04 11:44:55;;;;;;;1.07;0.90;;;;;;;;;;5059586;28;20665;-64
2023/05/04 11:47:25;;;;;;;0.80;0.80;;;;;;;;;;5059615;28;20235;-63
2023/05/04 11:49:53;;;;;;;2.20;1.10;;;;;;;;;;5059435;28;20250;-64
2023/05/04 11:52:23;;;;;;;1.20;0.90;;;;;;;;;;5059816;28;20212;-64
2023/05/04 11:54:54;;;;;;;1.77;0.83;;;;;;;;;;5059476;28;20201;-63
2023/05/04 11:57:22;;;;;;;2.00;1.00;;;;;;;;;;5059468;28;20291;-63
2023/05/04 11:59:51;;;;;;;2.40;0.90;;;;;;;;;;5054614;28;20206;-63
2023/05/04 12:02:18;;;;;;;2.93;0.90;;;;;;;;;;5058411;28;20204;-64
2023/05/04 12:04:48;;;;;;;3.83;1.20;;;;;;;;;;5050002;28;20203;-64
2023/05/04 12:07:16;;;;;;;2.50;0.90;;;;;;;;;;5057992;28;20335;-64
2023/05/04 12:09:45;;;;;;;1.63;0.73;;;;;;;;;;5058651;28;20225;-63
2023/05/04 12:12:13;;;;;;;2.10;1.00;;;;;;;;;;5057807;28;20215;-63
2023/05/04 12:14:48;;;;;;;1.33;0.90;;;;;;;;;;5059413;28;20315;-62
2023/05/04 12:17:16;;;;;;;1.03;0.73;;;;;;;;;;5052949;28;20636;-63
2023/05/04 12:19:49;;;;;;;0.93;0.90;;;;;;;;;;5048013;28;20204;-63
2023/05/04 12:22:17;;;;;;;5.73;0.90;;;;;;;;;;5049862;28;20850;-64
2023/05/04 12:24:45;;;;;;;4.30;1.80;;;;;;;;;;5058581;28;20374;-64
2023/05/04 12:27:14;;;;;;;2.10;0.90;;;;;;;;;;5059429;28;20205;-63
2023/05/04 12:29:42;;;;;;;2.17;1.10;;;;;;;;;;5058995;28;20578;-63
2023/05/04 12:32:10;;;;;;;1.20;0.90;;;;;;;;;;5059040;28;20217;-63
2023/05/04 12:34:38;;;;;;;11.03;2.40;;;;;;;;;;5059060;28;20255;-64
2023/05/04 12:37:07;;;;;;;7.97;1.77;;;;;;;;;;5058927;28;20738;-63
2023/05/04 12:39:35;;;;;;;0.80;0.80;;;;;;;;;;5059047;28;20213;-63
2023/05/04 12:42:04;;;;;;;3.43;0.70;;;;;;;;;;5058832;28;20296;-63
2023/05/04 12:44:32;;;;;;;1.77;0.80;;;;;;;;;;5058872;28;20256;-63
2023/05/04 12:47:00;;;;;;;1.30;1.20;;;;;;;;;;5058637;28;20318;-65
2023/05/04 12:49:28;;;;;;;1.37;1.30;;;;;;;;;;5060599;28;20202;-65
2023/05/04 12:51:56;;;;;;;3.53;1.33;;;;;;;;;;5052055;28;20206;-65
2023/05/04 12:54:26;;;;;;;1.40;1.00;;;;;;;;;;5045686;28;20223;-66
2023/05/04 12:56:54;;;;;;;1.70;1.10;;;;;;;;;;5058797;28;20252;-66
2023/05/04 12:59:23;;;;;;;1.37;1.20;;;;;;;;;;5058692;28;20210;-67
2023/05/04 13:01:51;;;;;;;2.90;1.23;;;;;;;;;;5058385;28;20214;-66
2023/05/04 13:04:19;;;;;;;2.10;1.20;;;;;;;;;;5058453;28;20588;-65
2023/05/04 13:06:47;;;;;;;1.80;1.40;;;;;;;;;;5058156;28;20297;-65
2023/05/04 13:09:15;;;;;;;2.00;1.10;;;;;;;;;;5058195;28;20601;-65
2023/05/04 13:11:45;;;;;;;0.93;0.83;;;;;;;;;;5058168;28;20260;-66
2023/05/04 13:14:13;;;;;;;3.90;1.20;;;;;;;;;;5058333;28;20234;-65
2023/05/04 13:16:41;;;;;;;2.67;1.07;;;;;;;;;;5057184;28;20229;-63
2023/05/04 13:19:09;;;;;;;1.97;0.83;;;;;;;;;;5058427;28;20207;-63
2023/05/04 13:21:37;;;;;;;0.80;0.80;;;;;;;;;;5057805;28;20706;-63
2023/05/04 13:24:05;;;;;;;5.40;1.63;;;;;;;;;;5058952;28;20286;-65
2023/05/04 13:26:33;;;;;;;12.50;3.80;;;;;;;;;;5050772;28;20227;-62
2023/05/04 13:29:04;;;;;;;15.23;3.80;;;;;;;;;;5057932;28;20211;-63
2023/05/04 13:31:32;;;;;;;4.17;1.50;;;;;;;;;;5058005;28;20265;-63
2023/05/04 13:34:00;;;;;;;3.23;0.90;;;;;;;;;;5057706;28;20661;-63
2023/05/04 13:36:28;;;;;;;0.80;0.80;;;;;;;;;;5057938;28;20259;-63
2023/05/04 13:38:56;;;;;;;0.80;0.80;;;;;;;;;;5060670;28;20282;-63
2023/05/04 13:41:24;;;;;;;4.77;0.90;;;;;;;;;;5050312;28;20214;-63
2023/05/04 13:43:52;;;;;;;2.20;0.97;;;;;;;;;;5048240;28;20568;-63
2023/05/04 13:46:21;;;;;;;2.53;1.20;;;;;;;;;;5057795;28;20238;-63
2023/05/04 13:48:49;;;;;;;1.47;0.70;;;;;;;;;;5057927;28;20297;-63
2023/05/04 13:51:17;;;;;;;1.90;0.87;;;;;;;;;;5057405;28;21324;-63
2023/05/04 13:53:45;;;;;;;1.43;1.33;;;;;;;;;;5057703;28;20762;-63
2023/05/04 13:56:16;;;;;;;0.97;0.87;;;;;;;;;;5057482;28;20275;-63
2023/05/04 13:58:44;;;;;;;3.50;1.00;;;;;;;;;;5057675;28;20231;-63
2023/05/04 14:01:12;;;;;;;2.87;0.97;;;;;;;;;;5057560;28;20660;-63
2023/05/04 14:03:42;;;;;;;1.40;0.80;;;;;;;;;;5057944;28;20236;-63
2023/05/04 14:06:10;;;;;;;1.63;0.90;;;;;;;;;;5056817;28;20595;-63
2023/05/04 14:08:38;;;;;;;0.97;0.97;;;;;;;;;;5057803;28;20599;-63
2023/05/04 14:11:05;;;;;;;1.10;0.93;;;;;;;;;;5057162;28;20212;-63
2023/05/04 14:13:33;;;;;;;1.10;0.93;;;;;;;;;;5052125;28;20206;-63
2023/05/04 14:16:01;;;;;;;1.13;1.03;;;;;;;;;;5057089;28;20256;-64
2023/05/04 14:18:30;;;;;;;6.17;1.73;;;;;;;;;;5057529;28;20241;-63
2023/05/04 14:24:22;;;;;;;2.60;0.90;;;;;;;;;;5013937;28;20205;-63
2023/05/04 14:26:50;;;;;;;1.03;1.03;;;;;;;;;;5013104;28;20231;-62
2023/05/04 14:29:18;;;;;;;1.20;1.10;;;;;;;;;;5014086;28;20214;-63
2023/05/04 14:31:46;;;;;;;1.40;1.10;;;;;;;;;;5011737;28;20239;-63
2023/05/04 14:34:14;;;;;;;1.20;1.10;;;;;;;;;;5011651;28;20248;-63
2023/05/04 14:36:42;;;;;;;1.23;1.00;;;;;;;;;;5012063;28;20250;-63
2023/05/04 14:39:10;;;;;;;1.93;1.00;;;;;;;;;;5014290;28;20268;-63
2023/05/04 14:41:39;;;;;;;1.27;1.00;;;;;;;;;;5012720;28;20614;-63
2023/05/04 14:44:07;;;;;;;1.57;1.10;;;;;;;;;;5010271;28;20257;-63
2023/05/04 14:46:35;;;;;;;1.50;1.30;;;;;;;;;;5011641;28;20273;-64
2023/05/04 14:49:03;;;;;;;1.20;1.00;;;;;;;;;;5014736;28;20248;-63
2023/05/04 14:51:32;;;;;;;1.70;1.03;;;;;;;;;;5012257;28;20572;-63
2023/05/04 14:54:00;;;;;;;1.57;1.03;;;;;;;;;;5015892;28;20232;-64
2023/05/04 14:56:28;;;;;;;1.47;1.27;;;;;;;;;;5021166;28;20728;-63
2023/05/04 14:59:00;;;;;;;4.60;1.03;;;;;;;;;;5021159;28;20211;-64